Terminal Aerodrome Forecast
Issued by NWS Paducah, KY

Home | Current Version | Previous Version | Text Only | Print | Product List | Glossary On
Versions: 1 2 3 4 5 6 7 8 9 10 11 12 13 14 15 16 17
000
FTUS43 KPAH 031720
TAFEVV
TAF
KEVV 031720Z 0318/0418 VRB05KT P6SM VCSH BKN025
      TEMPO 0318/0322 3SM -TSRA BR OVC020CB
     FM032300 32006KT P6SM SCT035 BKN100
     FM040800 35003KT 4SM BR SCT002 SCT015=

USA.gov is the U.S. government's official web portal to all federal, state and local government web resources and services.